Time;durP1;ratioP1;P1;durP2;ratioP2;P2;SDS_P1;SDS_P2;PMS_P1;PMS_P2;Temp;Humidity;BMP_temperature;BMP_pressure;BME280_temperature;BME280_humidity;BME280_pressure;Samples;Min_cycle;Max_cycle;Signal;HPM_P1;HPM_P2
2023/11/07 00:02:24;;;;;;;1.40;0.50;;;10.30;1.00;;;;;;5060704;28;20428;-82
2023/11/07 00:04:54;;;;;;;1.00;0.40;;;10.10;1.00;;;;;;5069526;28;20397;-81
2023/11/07 00:07:25;;;;;;;1.33;0.50;;;10.30;1.00;;;;;;5077762;28;20392;-80
2023/11/07 00:09:51;;;;;;;1.43;0.73;;;10.40;1.00;;;;;;5089217;28;20448;-80
2023/11/07 00:12:17;;;;;;;1.83;0.60;;;10.50;1.00;;;;;;5073033;28;20381;-80
2023/11/07 00:14:43;;;;;;;1.40;0.50;;;10.60;1.00;;;;;;5039338;28;20384;-81
2023/11/07 00:17:09;;;;;;;0.60;0.40;;;10.70;1.00;;;;;;5073039;28;20644;-82
2023/11/07 00:19:36;;;;;;;2.28;0.60;;;10.70;1.00;;;;;;5075533;28;20453;-81
2023/11/07 00:22:02;;;;;;;0.82;0.50;;;10.80;1.00;;;;;;5058423;28;20398;-80
2023/11/07 00:24:27;;;;;;;0.63;0.40;;;11.00;1.00;;;;;;5057645;28;20484;-81
2023/11/07 00:26:53;;;;;;;0.90;0.40;;;11.10;1.00;;;;;;5062559;28;20476;-81
2023/11/07 00:29:21;;;;;;;0.60;0.50;;;11.10;1.00;;;;;;5054507;28;20402;-82
2023/11/07 00:31:46;;;;;;;1.55;0.60;;;11.00;1.00;;;;;;5056056;28;20421;-81
2023/11/07 00:34:16;;;;;;;1.08;0.50;;;11.20;1.00;;;;;;5065993;28;20419;-82
2023/11/07 00:36:44;;;;;;;1.27;0.50;;;11.20;1.00;;;;;;5083466;28;20393;-81
2023/11/07 00:39:11;;;;;;;1.00;0.50;;;11.30;1.00;;;;;;5064293;28;20887;-82
2023/11/07 00:41:36;;;;;;;1.70;0.60;;;11.30;1.00;;;;;;5083852;28;20390;-81
2023/11/07 00:44:02;;;;;;;0.70;0.50;;;11.10;1.00;;;;;;5067866;28;20433;-81
2023/11/07 00:46:28;;;;;;;1.60;0.63;;;10.80;1.00;;;;;;5060537;28;20430;-81
2023/11/07 00:48:53;;;;;;;1.37;0.60;;;10.70;1.00;;;;;;5059978;28;20417;-83
2023/11/07 00:51:19;;;;;;;0.77;0.53;;;10.70;1.00;;;;;;5057613;28;20388;-83
2023/11/07 00:53:45;;;;;;;0.80;0.50;;;10.60;1.00;;;;;;5056634;28;20459;-82
2023/11/07 00:56:10;;;;;;;1.40;0.70;;;10.60;1.00;;;;;;5058400;28;20934;-82
2023/11/07 00:58:36;;;;;;;1.95;0.50;;;10.50;1.00;;;;;;5057744;28;20384;-81
2023/11/07 01:01:02;;;;;;;3.08;0.90;;;10.50;1.00;;;;;;5056525;28;20395;-81
2023/11/07 01:03:27;;;;;;;1.40;0.60;;;10.50;1.00;;;;;;5054413;28;20389;-81
2023/11/07 01:05:53;;;;;;;1.90;0.57;;;10.40;1.00;;;;;;5068270;28;20894;-83
2023/11/07 01:08:19;;;;;;;1.00;0.50;;;10.40;1.00;;;;;;5073992;28;20411;-81
2023/11/07 01:10:45;;;;;;;0.90;0.50;;;10.40;1.00;;;;;;5062161;28;20923;-81
2023/11/07 01:13:11;;;;;;;0.75;0.50;;;10.30;1.00;;;;;;5056436;28;20441;-81
2023/11/07 01:15:37;;;;;;;1.52;0.70;;;10.20;1.00;;;;;;5067055;28;20393;-81
2023/11/07 01:18:06;;;;;;;1.00;0.60;;;10.20;1.00;;;;;;5056316;28;20400;-81
2023/11/07 01:20:33;;;;;;;1.40;0.55;;;10.20;1.00;;;;;;5054539;28;20469;-81
2023/11/07 01:22:58;;;;;;;0.70;0.50;;;10.20;1.00;;;;;;5055151;28;20393;-81
2023/11/07 01:25:24;;;;;;;1.37;0.50;;;10.10;1.00;;;;;;5061555;28;20462;-81
2023/11/07 01:27:49;;;;;;;1.80;0.60;;;10.20;1.00;;;;;;5072109;28;20428;-81
2023/11/07 01:30:15;;;;;;;1.00;0.60;;;10.20;1.00;;;;;;5083748;22;20431;-77
2023/11/07 01:32:42;;;;;;;2.63;0.57;;;10.10;1.00;;;;;;5045900;28;20814;-77
2023/11/07 01:35:09;;;;;;;1.30;0.60;;;10.10;1.00;;;;;;5050076;28;20394;-77
2023/11/07 01:37:35;;;;;;;0.77;0.60;;;10.30;1.00;;;;;;5043981;28;20461;-77
2023/11/07 01:40:01;;;;;;;1.20;0.60;;;10.30;1.00;;;;;;5039062;28;20510;-77
2023/11/07 01:42:26;;;;;;;2.15;0.80;;;10.40;1.00;;;;;;5037184;28;20409;-79
2023/11/07 01:44:52;;;;;;;0.70;0.60;;;10.50;1.00;;;;;;5049648;28;20397;-79
2023/11/07 01:47:20;;;;;;;2.00;0.60;;;10.50;1.00;;;;;;5035404;28;20914;-79
2023/11/07 01:49:47;;;;;;;1.00;0.63;;;10.50;1.00;;;;;;5015646;28;20479;-79
2023/11/07 01:52:16;;;;;;;1.63;0.70;;;10.60;1.00;;;;;;5017762;28;20380;-81
2023/11/07 01:54:42;;;;;;;1.95;0.50;;;10.60;1.00;;;;;;5060884;28;20404;-79
2023/11/07 01:57:08;;;;;;;2.47;0.70;;;10.60;1.00;;;;;;5042704;28;20389;-78
2023/11/07 01:59:33;;;;;;;1.40;0.70;;;10.50;1.00;;;;;;5056149;28;20399;-78
2023/11/07 02:02:05;;;;;;;2.40;0.77;;;10.60;1.00;;;;;;5048262;28;20397;-78
2023/11/07 02:04:31;;;;;;;3.58;0.75;;;10.50;1.00;;;;;;5023386;28;20418;-79
2023/11/07 02:06:56;;;;;;;0.90;0.70;;;10.50;1.00;;;;;;5022236;28;20764;-79
2023/11/07 02:09:22;;;;;;;2.40;0.50;;;10.60;1.00;;;;;;5032252;28;20834;-79
2023/11/07 02:11:48;;;;;;;1.30;0.60;;;10.50;1.00;;;;;;5050789;28;20770;-80
2023/11/07 02:14:32;;;;;;;1.70;1.05;;;10.50;1.00;;;;;;5050693;28;20431;-79
2023/11/07 02:16:59;;;;;;;1.23;0.80;;;10.50;1.00;;;;;;5029671;28;20403;-79
2023/11/07 02:19:24;;;;;;;1.48;0.50;;;10.40;1.00;;;;;;5036754;28;20397;-79
2023/11/07 02:21:52;;;;;;;1.40;0.60;;;10.30;1.00;;;;;;5030175;28;20411;-79
2023/11/07 02:24:17;;;;;;;1.60;0.50;;;10.30;1.00;;;;;;5023917;28;20805;-79
2023/11/07 02:26:43;;;;;;;1.20;0.60;;;10.20;1.00;;;;;;5053734;28;20401;-79
2023/11/07 02:29:09;;;;;;;2.40;0.60;;;10.30;1.00;;;;;;5037927;28;20823;-79
2023/11/07 02:31:35;;;;;;;1.50;1.00;;;10.20;1.00;;;;;;5035196;28;20828;-78
2023/11/07 02:34:05;;;;;;;1.40;0.80;;;10.40;1.00;;;;;;5053342;28;20393;-79
2023/11/07 02:36:32;;;;;;;3.65;0.70;;;10.30;1.00;;;;;;5050108;28;20401;-79
2023/11/07 02:38:58;;;;;;;0.98;0.55;;;10.30;1.00;;;;;;5032027;28;20465;-79
2023/11/07 02:41:24;;;;;;;1.67;0.77;;;10.30;1.00;;;;;;5020115;28;20478;-79
2023/11/07 02:43:49;;;;;;;1.50;0.70;;;10.40;1.00;;;;;;5015276;28;20522;-79
2023/11/07 02:46:15;;;;;;;2.38;0.70;;;10.40;1.00;;;;;;5032287;28;20427;-80
2023/11/07 02:48:41;;;;;;;2.10;0.60;;;10.40;1.00;;;;;;5014489;28;20410;-79
2023/11/07 02:51:06;;;;;;;1.40;0.67;;;10.30;1.00;;;;;;5032374;28;20809;-79
2023/11/07 02:53:32;;;;;;;1.70;1.10;;;10.40;1.00;;;;;;5041049;28;20915;-79
2023/11/07 02:55:57;;;;;;;2.30;0.50;;;10.30;1.00;;;;;;5045304;28;20404;-79
2023/11/07 02:58:24;;;;;;;1.20;0.60;;;10.40;1.00;;;;;;5052339;28;20417;-79
2023/11/07 03:00:49;;;;;;;0.88;0.50;;;10.50;1.00;;;;;;5052171;28;20386;-79
2023/11/07 03:03:15;;;;;;;1.20;0.63;;;10.50;1.00;;;;;;5030713;28;20962;-79
2023/11/07 03:05:40;;;;;;;0.93;0.70;;;10.40;1.00;;;;;;5047076;28;20389;-79
2023/11/07 03:08:07;;;;;;;1.90;0.73;;;10.40;1.00;;;;;;5038501;28;20407;-78
2023/11/07 03:10:32;;;;;;;1.10;0.70;;;10.40;1.00;;;;;;5034323;28;20395;-79
2023/11/07 03:13:00;;;;;;;1.83;0.70;;;10.30;1.00;;;;;;5042417;28;20399;-80
2023/11/07 03:15:25;;;;;;;1.90;0.80;;;10.40;1.00;;;;;;5042304;28;20389;-79
2023/11/07 03:17:51;;;;;;;1.30;0.67;;;10.30;1.00;;;;;;5050128;28;20763;-81
2023/11/07 03:20:17;;;;;;;1.10;0.82;;;10.30;1.00;;;;;;5052548;28;20798;-79
2023/11/07 03:22:42;;;;;;;1.50;0.60;;;10.40;1.00;;;;;;5050774;28;20530;-79
2023/11/07 03:25:09;;;;;;;0.60;0.50;;;10.30;1.00;;;;;;5036649;28;20393;-79
2023/11/07 03:27:36;;;;;;;2.00;0.40;;;10.30;1.00;;;;;;5038051;28;20425;-80
2023/11/07 03:30:05;;;;;;;0.90;0.60;;;10.30;1.00;;;;;;5052837;28;20482;-80
2023/11/07 03:32:32;;;;;;;1.77;0.70;;;10.40;1.00;;;;;;5032612;28;20403;-79
2023/11/07 03:34:58;;;;;;;2.45;0.70;;;10.40;1.00;;;;;;5051166;28;20885;-79
2023/11/07 03:37:24;;;;;;;0.98;0.60;;;10.40;1.00;;;;;;5048568;28;20453;-80
2023/11/07 03:39:49;;;;;;;1.70;0.50;;;10.50;1.00;;;;;;5037062;28;20408;-79
2023/11/07 03:42:15;;;;;;;2.03;0.80;;;10.50;1.00;;;;;;5036834;28;20425;-79
2023/11/07 03:44:41;;;;;;;2.30;0.80;;;10.50;1.00;;;;;;5041953;28;20429;-79
2023/11/07 03:47:07;;;;;;;2.10;0.73;;;10.40;1.00;;;;;;5053468;28;20477;-79
2023/11/07 03:49:33;;;;;;;1.40;0.50;;;10.40;1.00;;;;;;5054199;28;20973;-80
2023/11/07 03:51:58;;;;;;;1.63;1.10;;;10.40;1.00;;;;;;5036715;28;20397;-80
2023/11/07 03:54:24;;;;;;;1.30;0.73;;;10.40;1.00;;;;;;5043617;28;20911;-80
2023/11/07 03:56:49;;;;;;;0.90;0.50;;;10.40;1.00;;;;;;5055671;28;20401;-78
2023/11/07 03:59:15;;;;;;;1.08;0.70;;;10.40;1.00;;;;;;5044799;28;20399;-79
2023/11/07 04:01:41;;;;;;;0.70;0.50;;;10.40;1.00;;;;;;5039900;28;20426;-79
2023/11/07 04:04:06;;;;;;;1.70;0.60;;;10.40;1.00;;;;;;5046597;28;20774;-80
2023/11/07 04:06:32;;;;;;;3.40;1.00;;;10.40;1.00;;;;;;5047667;28;20466;-78
2023/11/07 04:08:58;;;;;;;1.70;0.50;;;10.40;1.00;;;;;;5027139;28;20401;-79
2023/11/07 04:11:25;;;;;;;1.75;0.70;;;10.40;1.00;;;;;;5037110;28;20468;-79
2023/11/07 04:13:54;;;;;;;1.02;0.50;;;10.40;1.00;;;;;;5047037;28;20393;-78
2023/11/07 04:16:20;;;;;;;1.70;0.47;;;10.50;1.00;;;;;;5054966;28;20397;-77
2023/11/07 04:18:45;;;;;;;0.80;0.60;;;10.50;1.00;;;;;;5021501;28;20401;-78
2023/11/07 04:21:11;;;;;;;1.10;0.50;;;10.50;1.00;;;;;;5052311;28;20395;-79
2023/11/07 04:23:37;;;;;;;1.50;0.50;;;10.40;1.00;;;;;;5036504;28;20452;-81
2023/11/07 04:26:03;;;;;;;0.80;0.65;;;10.40;1.00;;;;;;5028681;28;20452;-80
2023/11/07 04:28:29;;;;;;;0.80;0.40;;;10.50;1.00;;;;;;5037731;28;20493;-78
2023/11/07 04:30:54;;;;;;;2.47;0.68;;;10.60;1.00;;;;;;5033868;28;20498;-79
2023/11/07 04:33:21;;;;;;;1.53;0.70;;;10.50;1.00;;;;;;5053139;28;20393;-79
2023/11/07 04:35:47;;;;;;;0.70;0.57;;;10.50;1.00;;;;;;5035144;28;20427;-79
2023/11/07 04:38:13;;;;;;;1.50;0.50;;;10.60;1.00;;;;;;5033499;28;20406;-79
2023/11/07 04:40:40;;;;;;;1.20;0.73;;;10.60;1.00;;;;;;5054004;28;20397;-80
2023/11/07 04:43:07;;;;;;;1.40;0.60;;;10.60;1.00;;;;;;5047734;28;20494;-81
2023/11/07 04:45:33;;;;;;;2.08;0.50;;;10.50;1.00;;;;;;5033819;28;20386;-80
2023/11/07 04:47:58;;;;;;;1.80;0.40;;;10.60;1.00;;;;;;5028122;28;20941;-80
2023/11/07 04:50:26;;;;;;;1.70;0.50;;;10.60;1.00;;;;;;5046085;28;20398;-80
2023/11/07 04:52:53;;;;;;;2.40;0.60;;;10.50;1.00;;;;;;5047831;28;20393;-80
2023/11/07 04:55:18;;;;;;;0.90;0.50;;;10.50;1.00;;;;;;5046013;28;20880;-80
2023/11/07 04:57:45;;;;;;;1.00;0.70;;;10.60;1.00;;;;;;5022910;28;20476;-79
2023/11/07 05:00:12;;;;;;;2.88;0.65;;;10.60;1.00;;;;;;5038405;28;20390;-81
2023/11/07 05:02:38;;;;;;;1.10;0.40;;;10.60;1.00;;;;;;5021406;28;20901;-79
2023/11/07 05:05:04;;;;;;;1.95;0.70;;;10.60;1.00;;;;;;5035285;28;20792;-79
2023/11/07 05:07:30;;;;;;;1.05;0.50;;;10.70;1.00;;;;;;5024199;28;20389;-79
2023/11/07 05:09:58;;;;;;;2.00;0.60;;;10.60;1.00;;;;;;5045965;28;20919;-81
2023/11/07 05:12:24;;;;;;;0.77;0.50;;;10.60;1.00;;;;;;5033900;28;20453;-80
2023/11/07 05:14:49;;;;;;;1.20;0.50;;;10.60;1.00;;;;;;5042597;28;20865;-79
2023/11/07 05:17:15;;;;;;;1.40;0.53;;;10.60;1.00;;;;;;5049191;28;20389;-80
2023/11/07 05:19:40;;;;;;;0.60;0.50;;;10.60;1.00;;;;;;5034216;28;20461;-80
2023/11/07 05:22:06;;;;;;;1.30;0.50;;;10.60;1.00;;;;;;5033265;28;20395;-80
2023/11/07 05:24:31;;;;;;;1.43;0.60;;;10.60;1.00;;;;;;5033796;28;20407;-80
2023/11/07 05:26:57;;;;;;;1.40;0.60;;;10.50;1.00;;;;;;5029579;28;20396;-80
2023/11/07 05:29:23;;;;;;;0.90;0.50;;;10.60;1.00;;;;;;5010755;28;20415;-80
2023/11/07 05:31:49;;;;;;;1.75;0.60;;;10.60;1.00;;;;;;5026116;28;20407;-80
2023/11/07 05:34:14;;;;;;;2.08;0.60;;;10.50;1.00;;;;;;5040362;28;20424;-80
2023/11/07 05:36:41;;;;;;;1.73;0.77;;;10.50;1.00;;;;;;5053741;28;20382;-80
2023/11/07 05:39:06;;;;;;;0.75;0.50;;;10.50;1.00;;;;;;5050775;28;20452;-80
2023/11/07 05:41:32;;;;;;;1.20;0.68;;;10.50;1.00;;;;;;5034137;28;20912;-80
2023/11/07 05:43:58;;;;;;;0.88;0.55;;;10.50;1.00;;;;;;5039917;28;20400;-80
2023/11/07 05:46:23;;;;;;;3.55;0.50;;;10.50;1.00;;;;;;5045251;28;20399;-79
2023/11/07 05:48:52;;;;;;;1.33;0.60;;;10.50;1.00;;;;;;5047822;28;20409;-80
2023/11/07 05:51:23;;;;;;;0.90;0.55;;;10.40;1.00;;;;;;5049326;28;20406;-79
2023/11/07 05:53:50;;;;;;;0.60;0.50;;;10.40;1.00;;;;;;5014814;28;20406;-80
2023/11/07 05:56:15;;;;;;;0.98;0.60;;;10.50;1.00;;;;;;5047843;28;20389;-80
2023/11/07 05:58:41;;;;;;;0.77;0.43;;;10.50;1.00;;;;;;5034409;28;20431;-79
2023/11/07 06:01:07;;;;;;;0.52;0.50;;;10.50;1.00;;;;;;5034103;28;20430;-80
2023/11/07 06:03:33;;;;;;;1.43;0.50;;;10.40;1.00;;;;;;5058540;28;20388;-81
2023/11/07 06:05:59;;;;;;;2.10;0.60;;;10.50;1.00;;;;;;5064334;28;20423;-79
2023/11/07 06:08:24;;;;;;;0.97;0.60;;;10.40;1.00;;;;;;5022841;28;20405;-79
2023/11/07 06:10:50;;;;;;;1.90;0.80;;;10.50;1.00;;;;;;5054791;28;20893;-79
2023/11/07 06:13:16;;;;;;;1.40;0.60;;;10.40;1.00;;;;;;5054558;28;20912;-78
2023/11/07 06:15:42;;;;;;;1.80;0.77;;;10.50;1.00;;;;;;5057910;28;20393;-79
2023/11/07 06:18:08;;;;;;;0.55;0.40;;;10.50;1.00;;;;;;5053072;28;20458;-79
2023/11/07 06:20:33;;;;;;;0.60;0.50;;;10.40;1.00;;;;;;5037358;28;20403;-79
2023/11/07 06:22:59;;;;;;;1.97;0.50;;;10.40;1.00;;;;;;5017378;28;20390;-80
2023/11/07 06:25:25;;;;;;;0.93;0.50;;;10.60;1.00;;;;;;5045828;28;20405;-80
2023/11/07 06:27:51;;;;;;;1.20;0.60;;;10.50;1.00;;;;;;5022255;28;20394;-80
2023/11/07 06:30:18;;;;;;;0.70;0.60;;;10.50;1.00;;;;;;5041444;28;20814;-79
2023/11/07 06:32:44;;;;;;;1.80;0.52;;;10.50;1.00;;;;;;5036938;28;20723;-80
2023/11/07 06:35:10;;;;;;;0.70;0.50;;;10.40;1.00;;;;;;5050457;28;20389;-80
2023/11/07 06:37:36;;;;;;;2.00;0.60;;;10.50;1.00;;;;;;5016024;28;20954;-79
2023/11/07 06:40:04;;;;;;;1.30;0.55;;;10.50;1.00;;;;;;5043778;28;20508;-80
2023/11/07 06:42:30;;;;;;;0.70;0.50;;;10.50;1.00;;;;;;5037465;28;20399;-80
2023/11/07 06:44:56;;;;;;;0.80;0.50;;;10.50;1.00;;;;;;5046203;28;20471;-80
2023/11/07 06:47:21;;;;;;;0.60;0.50;;;10.50;1.00;;;;;;5053996;28;20374;-79
2023/11/07 06:49:48;;;;;;;1.13;0.70;;;10.50;1.00;;;;;;5050649;28;20405;-80
2023/11/07 06:52:14;;;;;;;0.70;0.55;;;10.50;1.00;;;;;;5046377;28;20499;-79
2023/11/07 06:54:42;;;;;;;1.30;0.50;;;10.50;1.00;;;;;;5034698;28;20804;-79
2023/11/07 06:57:09;;;;;;;2.45;0.70;;;10.60;1.00;;;;;;5017207;28;20387;-81
2023/11/07 06:59:34;;;;;;;1.30;0.60;;;10.60;1.00;;;;;;5038842;28;20931;-83
2023/11/07 07:02:00;;;;;;;1.67;0.70;;;10.50;1.00;;;;;;5026604;28;20397;-82
2023/11/07 07:04:26;;;;;;;0.80;0.50;;;10.50;1.00;;;;;;5062766;28;20411;-83
2023/11/07 07:06:51;;;;;;;0.60;0.50;;;10.80;1.00;;;;;;5046165;28;20468;-83
2023/11/07 07:09:18;;;;;;;0.60;0.50;;;10.50;1.00;;;;;;5053939;28;20407;-83
2023/11/07 07:11:44;;;;;;;1.92;0.75;;;10.50;1.00;;;;;;5047285;28;20390;-84
2023/11/07 07:14:10;;;;;;;0.90;0.63;;;10.50;1.00;;;;;;5033711;28;20411;-84
2023/11/07 07:16:37;;;;;;;1.08;0.40;;;10.50;1.00;;;;;;5023560;28;20391;-83
2023/11/07 07:19:06;;;;;;;0.85;0.50;;;10.50;1.00;;;;;;5029480;28;20403;-82
2023/11/07 07:21:35;;;;;;;1.88;0.50;;;10.50;1.00;;;;;;5048560;28;20486;-83
2023/11/07 07:24:15;;;;;;;1.60;0.80;;;10.50;1.00;;;;;;5034314;28;20429;-83
2023/11/07 07:26:44;;;;;;;0.55;0.40;;;10.40;1.00;;;;;;5051071;28;20797;-83
2023/11/07 07:29:13;;;;;;;1.48;0.60;;;10.40;1.00;;;;;;5047746;28;20410;-83
2023/11/07 07:31:42;;;;;;;0.77;0.50;;;10.40;1.00;;;;;;5057025;22;21060;-81
2023/11/07 07:34:09;;;;;;;1.02;0.40;;;10.40;1.00;;;;;;5073035;28;20380;-81
2023/11/07 07:36:43;;;;;;;0.93;0.50;;;10.50;1.00;;;;;;5060994;28;20438;-80
2023/11/07 07:39:32;;;;;;;1.90;0.60;;;10.50;1.00;;;;;;5077363;28;20747;-81
2023/11/07 07:42:09;;;;;;;1.30;0.52;;;10.60;1.00;;;;;;5031241;28;20393;-81
2023/11/07 07:44:35;;;;;;;1.30;0.50;;;10.60;1.00;;;;;;5022637;28;20430;-80
2023/11/07 07:47:01;;;;;;;0.80;0.40;;;10.70;1.00;;;;;;5039884;28;20400;-80
2023/11/07 07:49:30;;;;;;;1.20;0.55;;;10.70;1.00;;;;;;5047219;28;20480;-81
2023/11/07 07:51:58;;;;;;;0.60;0.50;;;10.40;1.00;;;;;;5036061;28;20927;-80
2023/11/07 07:54:24;;;;;;;1.20;0.40;;;10.80;1.00;;;;;;5012855;28;20389;-81
2023/11/07 07:56:54;;;;;;;0.90;0.50;;;10.80;1.00;;;;;;5018589;28;20771;-84
2023/11/07 07:59:23;;;;;;;1.70;0.50;;;10.70;1.00;;;;;;5005111;28;20416;-82
2023/11/07 08:01:53;;;;;;;1.20;0.68;;;10.90;1.00;;;;;;5002147;28;20385;-82
2023/11/07 08:04:21;;;;;;;1.13;0.70;;;10.90;1.00;;;;;;5029568;28;20445;-84
2023/11/07 08:06:47;;;;;;;2.92;0.90;;;10.90;1.00;;;;;;5023455;28;20425;-80
2023/11/07 08:09:13;;;;;;;2.92;1.30;;;11.00;1.00;;;;;;5025464;28;20460;-82
2023/11/07 08:11:39;;;;;;;1.50;0.98;;;11.00;1.00;;;;;;5046152;28;20754;-81
2023/11/07 08:14:05;;;;;;;2.33;1.50;;;11.00;1.00;;;;;;5041640;28;20436;-82
2023/11/07 08:16:30;;;;;;;1.75;1.20;;;11.00;1.00;;;;;;5050206;28;20401;-82
2023/11/07 08:18:56;;;;;;;3.30;0.90;;;11.10;1.00;;;;;;5036805;28;20480;-81
2023/11/07 08:21:21;;;;;;;0.77;0.70;;;11.00;1.00;;;;;;5048997;28;20391;-80
2023/11/07 08:23:47;;;;;;;0.70;0.40;;;11.10;1.00;;;;;;5057135;28;20371;-79
2023/11/07 08:26:13;;;;;;;0.98;0.60;;;11.20;1.00;;;;;;5049492;28;20885;-81
2023/11/07 08:28:43;;;;;;;2.42;0.85;;;11.20;1.00;;;;;;5039151;28;20752;-81
2023/11/07 08:31:11;;;;;;;1.15;0.50;;;11.40;1.00;;;;;;5037143;28;20393;-81
2023/11/07 08:33:37;;;;;;;1.30;0.50;;;11.30;1.00;;;;;;5030478;28;20395;-81
2023/11/07 08:36:03;;;;;;;1.30;0.50;;;11.40;1.00;;;;;;5038610;28;20389;-81
2023/11/07 08:38:29;;;;;;;1.00;0.60;;;11.30;1.00;;;;;;5048563;28;20476;-81
2023/11/07 08:40:56;;;;;;;1.08;0.40;;;11.40;1.00;;;;;;5035396;28;20393;-81
2023/11/07 08:43:22;;;;;;;1.00;0.70;;;11.40;1.00;;;;;;5038205;28;20806;-81
2023/11/07 08:45:48;;;;;;;0.70;0.50;;;11.40;1.00;;;;;;5034280;28;20392;-81
2023/11/07 08:48:13;;;;;;;0.90;0.60;;;11.30;1.00;;;;;;5040930;28;20409;-81
2023/11/07 08:50:39;;;;;;;1.60;0.77;;;11.30;1.00;;;;;;5042293;28;20766;-82
2023/11/07 08:53:05;;;;;;;0.80;0.53;;;11.30;1.00;;;;;;5043908;28;20440;-82
2023/11/07 08:55:31;;;;;;;0.90;0.60;;;11.40;1.00;;;;;;5060287;28;20607;-81
2023/11/07 08:57:57;;;;;;;0.90;0.50;;;11.50;1.00;;;;;;5060844;28;20393;-82
2023/11/07 09:00:26;;;;;;;0.80;0.60;;;11.40;1.00;;;;;;5062170;28;20389;-81
2023/11/07 09:02:52;;;;;;;1.50;0.50;;;11.50;1.00;;;;;;5042626;28;20393;-81
2023/11/07 09:05:18;;;;;;;1.17;0.60;;;11.50;1.00;;;;;;5059327;28;20409;-80
2023/11/07 09:07:45;;;;;;;1.23;0.73;;;12.10;1.00;;;;;;5042129;28;20377;-82
2023/11/07 09:10:13;;;;;;;1.40;0.80;;;11.50;1.00;;;;;;5060566;28;20382;-81
2023/11/07 09:12:42;;;;;;;0.80;0.60;;;11.60;1.00;;;;;;5043912;28;20463;-81
2023/11/07 09:15:12;;;;;;;1.60;0.47;;;11.70;1.00;;;;;;5058945;28;20385;-82
2023/11/07 09:17:39;;;;;;;1.13;0.52;;;11.50;1.00;;;;;;5056822;28;20411;-81
2023/11/07 09:20:09;;;;;;;2.33;0.55;;;11.50;1.00;;;;;;5028155;28;20770;-80
2023/11/07 09:22:35;;;;;;;0.70;0.50;;;11.60;1.00;;;;;;5029276;28;20547;-80
2023/11/07 09:25:01;;;;;;;0.80;0.45;;;11.60;1.00;;;;;;5036389;28;20382;-81
2023/11/07 09:27:27;;;;;;;1.60;0.50;;;11.60;1.00;;;;;;5040158;28;20400;-81
2023/11/07 09:29:56;;;;;;;0.88;0.50;;;11.60;1.00;;;;;;5040173;28;20405;-81
2023/11/07 09:32:22;;;;;;;2.30;0.80;;;11.70;1.00;;;;;;5056521;28;20458;-81
2023/11/07 09:34:48;;;;;;;1.63;0.60;;;11.50;1.00;;;;;;5055331;28;20381;-81
2023/11/07 09:37:15;;;;;;;1.40;0.60;;;11.60;1.00;;;;;;5040418;28;20449;-80
2023/11/07 09:39:41;;;;;;;2.10;0.50;;;11.60;1.00;;;;;;5056727;28;20845;-81
2023/11/07 09:42:07;;;;;;;1.60;0.40;;;11.60;1.00;;;;;;5055850;28;20393;-82
2023/11/07 09:44:37;;;;;;;1.60;0.60;;;11.50;1.00;;;;;;5043519;28;20387;-80
2023/11/07 09:47:05;;;;;;;0.90;0.60;;;11.40;1.00;;;;;;5040540;28;20775;-81
2023/11/07 09:49:34;;;;;;;4.70;0.90;;;11.40;1.00;;;;;;5040938;28;20427;-80
2023/11/07 09:52:04;;;;;;;1.27;0.85;;;11.40;1.00;;;;;;5021915;28;20398;-82
2023/11/07 09:54:32;;;;;;;1.50;0.85;;;11.30;1.00;;;;;;5038415;28;20437;-82
2023/11/07 09:57:06;;;;;;;1.02;0.60;;;11.50;1.00;;;;;;5042284;28;20391;-81
2023/11/07 09:59:49;;;;;;;1.00;0.50;;;11.50;1.00;;;;;;5020690;28;20402;-81
2023/11/07 10:02:15;;;;;;;3.30;0.70;;;11.50;1.00;;;;;;5036344;28;20394;-81
2023/11/07 10:04:44;;;;;;;0.90;0.70;;;11.50;1.00;;;;;;5042330;28;20385;-79
2023/11/07 10:07:09;;;;;;;0.60;0.50;;;11.50;1.00;;;;;;5048174;28;20410;-80
2023/11/07 10:09:35;;;;;;;1.70;0.70;;;11.40;1.00;;;;;;5037481;28;20402;-81
2023/11/07 10:12:00;;;;;;;1.43;0.70;;;11.60;1.00;;;;;;5036546;28;20387;-81
2023/11/07 10:14:26;;;;;;;1.13;0.63;;;11.50;1.00;;;;;;5038244;28;20477;-81
2023/11/07 10:16:54;;;;;;;1.50;0.90;;;11.30;1.00;;;;;;5018808;28;20482;-82
2023/11/07 10:19:22;;;;;;;1.13;0.80;;;11.30;1.00;;;;;;5019607;28;20391;-81
2023/11/07 10:21:48;;;;;;;1.30;1.10;;;11.00;1.00;;;;;;5019117;28;20763;-81
2023/11/07 10:24:14;;;;;;;1.00;0.80;;;11.10;1.00;;;;;;5020927;28;20419;-81
2023/11/07 10:26:58;;;;;;;0.80;0.52;;;11.10;1.00;;;;;;5038128;28;20879;-81
2023/11/07 10:29:30;;;;;;;1.40;0.52;;;11.10;1.00;;;;;;5037993;28;20418;-81
2023/11/07 10:32:07;;;;;;;0.90;0.70;;;11.10;1.00;;;;;;5021096;28;20395;-81
2023/11/07 10:34:33;;;;;;;1.00;0.70;;;11.30;1.00;;;;;;5019009;28;20767;-80
2023/11/07 10:36:59;;;;;;;1.00;0.60;;;11.20;1.00;;;;;;5036209;28;20379;-80
2023/11/07 10:39:29;;;;;;;0.93;0.60;;;11.10;1.00;;;;;;5019497;28;20401;-81
2023/11/07 10:41:55;;;;;;;1.00;0.80;;;11.30;1.00;;;;;;5037405;28;20378;-81
2023/11/07 10:44:28;;;;;;;1.10;0.60;;;11.30;1.00;;;;;;5008142;28;20397;-81
2023/11/07 10:46:58;;;;;;;1.40;0.65;;;11.40;1.00;;;;;;4999399;28;20423;-80
2023/11/07 10:49:24;;;;;;;1.50;0.77;;;11.30;1.00;;;;;;5018162;28;20404;-81
2023/11/07 10:51:51;;;;;;;2.08;1.10;;;10.80;1.00;;;;;;4998603;28;20423;-80
2023/11/07 10:54:19;;;;;;;1.17;0.50;;;11.40;1.00;;;;;;5017155;28;20384;-81
2023/11/07 10:56:46;;;;;;;1.00;0.70;;;11.60;1.00;;;;;;5017317;28;20869;-80
2023/11/07 10:59:18;;;;;;;0.70;0.65;;;11.60;1.00;;;;;;5000559;28;20401;-82
2023/11/07 11:01:46;;;;;;;0.70;0.70;;;11.50;1.00;;;;;;5016276;28;20387;-80
2023/11/07 11:04:13;;;;;;;1.30;0.80;;;11.50;1.00;;;;;;5016831;28;20401;-81
2023/11/07 11:06:44;;;;;;;0.95;0.70;;;11.50;1.00;;;;;;4998766;28;20392;-81
2023/11/07 11:09:11;;;;;;;1.10;0.70;;;11.60;1.00;;;;;;5000439;28;20416;-83
2023/11/07 11:11:37;;;;;;;1.05;0.73;;;11.60;1.00;;;;;;5016039;28;20385;-78
2023/11/07 11:14:08;;;;;;;1.30;0.70;;;11.40;1.00;;;;;;5012762;28;20384;-81
2023/11/07 11:16:36;;;;;;;0.93;0.60;;;11.20;1.00;;;;;;4995451;28;20472;-80
2023/11/07 11:19:33;;;;;;;0.70;0.60;;;11.20;1.00;;;;;;5023802;28;20406;-79
2023/11/07 11:22:20;;;;;;;0.70;0.50;;;11.30;1.00;;;;;;5014885;28;20399;-80
2023/11/07 11:25:32;;;;;;;0.90;0.80;;;11.30;1.00;;;;;;5011540;28;20523;-80
2023/11/07 11:28:04;;;;;;;2.10;0.70;;;11.10;1.00;;;;;;4934870;29;20859;-79
2023/11/07 11:30:37;;;;;;;2.97;0.80;;;11.10;1.00;;;;;;5000782;28;20515;-79
2023/11/07 11:33:12;;;;;;;0.90;0.70;;;11.00;1.00;;;;;;5025796;28;20390;-77
2023/11/07 11:35:40;;;;;;;1.10;0.73;;;10.70;1.00;;;;;;5034493;28;20387;-79
2023/11/07 11:38:16;;;;;;;0.90;0.50;;;10.50;1.00;;;;;;5038483;28;21140;-78
2023/11/07 11:41:02;;;;;;;0.80;0.60;;;10.30;1.00;;;;;;5036260;28;20383;-77
2023/11/07 11:43:55;;;;;;;1.20;0.70;;;9.90;1.00;;;;;;5008088;28;20407;-78
2023/11/07 11:46:39;;;;;;;1.80;0.57;;;9.80;1.00;;;;;;5038705;28;20413;-77
2023/11/07 11:49:11;;;;;;;0.70;0.50;;;9.60;1.00;;;;;;5036265;28;20411;-76
2023/11/07 11:51:42;;;;;;;1.00;0.47;;;9.50;1.00;;;;;;5035175;28;20386;-78
2023/11/07 11:54:20;;;;;;;0.70;0.40;;;9.40;1.00;;;;;;5033314;28;20392;-78
2023/11/07 11:56:48;;;;;;;0.60;0.40;;;9.30;1.00;;;;;;5016065;28;20431;-78
2023/11/07 11:59:16;;;;;;;0.70;0.40;;;9.10;1.00;;;;;;5035837;28;20398;-80
2023/11/07 12:02:03;;;;;;;0.70;0.30;;;8.90;1.00;;;;;;5036207;28;20386;-79
2023/11/07 12:04:37;;;;;;;0.50;0.40;;;8.70;1.00;;;;;;5017178;28;20384;-79
2023/11/07 12:07:14;;;;;;;0.50;0.40;;;8.60;1.00;;;;;;5018370;28;20930;-78
2023/11/07 12:09:47;;;;;;;0.68;0.40;;;8.60;1.00;;;;;;5018318;28;20408;-79
2023/11/07 12:12:17;;;;;;;0.75;0.50;;;8.60;1.00;;;;;;5017847;28;20415;-79
2023/11/07 12:14:54;;;;;;;1.52;0.60;;;8.60;1.00;;;;;;4999366;28;20815;-79
2023/11/07 12:17:21;;;;;;;0.50;0.40;;;8.60;1.00;;;;;;5026226;28;20423;-78
2023/11/07 12:19:48;;;;;;;0.50;0.40;;;8.60;1.00;;;;;;5036642;28;20386;-79
2023/11/07 12:22:15;;;;;;;0.70;0.50;;;8.60;1.00;;;;;;5035821;28;20414;-78
2023/11/07 12:24:40;;;;;;;1.20;0.40;;;8.60;1.00;;;;;;5022391;28;20894;-78
2023/11/07 12:27:06;;;;;;;0.90;0.50;;;8.60;1.00;;;;;;5020659;28;20396;-79
2023/11/07 12:29:33;;;;;;;1.10;0.40;;;8.60;1.00;;;;;;5018765;28;20446;-79
2023/11/07 12:31:59;;;;;;;0.68;0.45;;;8.60;1.00;;;;;;5000177;28;20400;-79
2023/11/07 12:34:35;;;;;;;0.68;0.50;;;8.60;1.00;;;;;;5015765;28;20753;-79
2023/11/07 12:37:07;;;;;;;0.80;0.60;;;8.50;1.00;;;;;;5021532;28;20606;-79
2023/11/07 12:39:34;;;;;;;1.50;0.50;;;8.50;1.00;;;;;;5016958;28;20394;-78
2023/11/07 12:42:00;;;;;;;0.73;0.40;;;8.50;1.00;;;;;;5034310;28;20434;-78
2023/11/07 12:44:27;;;;;;;1.20;0.50;;;8.50;1.00;;;;;;5003436;28;20447;-79
2023/11/07 12:46:53;;;;;;;1.20;0.50;;;8.50;1.00;;;;;;5019550;28;20433;-79
2023/11/07 12:49:19;;;;;;;0.55;0.50;;;8.60;1.00;;;;;;5016587;28;20417;-79
2023/11/07 12:51:46;;;;;;;0.70;0.50;;;8.60;1.00;;;;;;5034332;28;20382;-78
2023/11/07 12:54:12;;;;;;;1.30;0.68;;;8.70;1.00;;;;;;5033989;28;20433;-78
2023/11/07 12:56:44;;;;;;;1.30;0.70;;;8.70;1.00;;;;;;5033078;28;20425;-76
2023/11/07 12:59:15;;;;;;;1.10;0.50;;;8.80;1.00;;;;;;5015949;28;20392;-77
2023/11/07 13:01:47;;;;;;;0.80;0.60;;;8.90;1.00;;;;;;5016179;28;20395;-78